sensor_id;sensor_type;location;lat;lon;timestamp;P1;durP1;ratioP1;P2;durP2;ratioP2
17141;SDS011;32805;53.556;9.944;2022-08-18T00:01:08;3.63;;;3.33;;
17141;SDS011;32805;53.556;9.944;2022-08-18T00:03:39;3.42;;;3.10;;
17141;SDS011;32805;53.556;9.944;2022-08-18T00:06:27;3.83;;;3.50;;
17141;SDS011;32805;53.556;9.944;2022-08-18T00:08:58;3.88;;;3.47;;
17141;SDS011;32805;53.556;9.944;2022-08-18T00:11:27;3.65;;;3.35;;
17141;SDS011;32805;53.556;9.944;2022-08-18T00:14:07;3.33;;;3.05;;
17141;SDS011;32805;53.556;9.944;2022-08-18T00:16:47;3.60;;;3.30;;
17141;SDS011;32805;53.556;9.944;2022-08-18T00:19:18;4.10;;;3.80;;
17141;SDS011;32805;53.556;9.944;2022-08-18T00:22:06;4.38;;;3.88;;
17141;SDS011;32805;53.556;9.944;2022-08-18T00:24:41;4.70;;;4.30;;
17141;SDS011;32805;53.556;9.944;2022-08-18T00:27:14;4.63;;;4.20;;
17141;SDS011;32805;53.556;9.944;2022-08-18T00:29:47;4.07;;;3.75;;
17141;SDS011;32805;53.556;9.944;2022-08-18T00:32:15;5.13;;;4.63;;
17141;SDS011;32805;53.556;9.944;2022-08-18T00:34:45;5.15;;;4.47;;
17141;SDS011;32805;53.556;9.944;2022-08-18T00:37:13;5.13;;;4.55;;
17141;SDS011;32805;53.556;9.944;2022-08-18T00:39:43;4.95;;;4.55;;
17141;SDS011;32805;53.556;9.944;2022-08-18T00:42:14;4.80;;;4.40;;
17141;SDS011;32805;53.556;9.944;2022-08-18T00:44:57;4.95;;;4.53;;
17141;SDS011;32805;53.556;9.944;2022-08-18T00:47:27;6.35;;;5.13;;
17141;SDS011;32805;53.556;9.944;2022-08-18T00:50:09;5.43;;;4.93;;
17141;SDS011;32805;53.556;9.944;2022-08-18T00:52:42;6.80;;;5.43;;
17141;SDS011;32805;53.556;9.944;2022-08-18T00:55:14;5.40;;;4.88;;
17141;SDS011;32805;53.556;9.944;2022-08-18T00:57:44;6.78;;;5.90;;
17141;SDS011;32805;53.556;9.944;2022-08-18T01:00:15;6.32;;;5.72;;
17141;SDS011;32805;53.556;9.944;2022-08-18T01:02:43;6.28;;;5.68;;
17141;SDS011;32805;53.556;9.944;2022-08-18T01:05:17;10.35;;;6.30;;
17141;SDS011;32805;53.556;9.944;2022-08-18T01:07:48;6.93;;;6.30;;
17141;SDS011;32805;53.556;9.944;2022-08-18T01:10:19;6.72;;;6.03;;
17141;SDS011;32805;53.556;9.944;2022-08-18T01:12:50;7.13;;;6.50;;
17141;SDS011;32805;53.556;9.944;2022-08-18T01:15:21;7.00;;;6.30;;
17141;SDS011;32805;53.556;9.944;2022-08-18T01:17:55;8.43;;;7.20;;
17141;SDS011;32805;53.556;9.944;2022-08-18T01:20:43;7.40;;;6.70;;
17141;SDS011;32805;53.556;9.944;2022-08-18T01:23:45;8.13;;;7.32;;
17141;SDS011;32805;53.556;9.944;2022-08-18T01:26:15;8.32;;;7.57;;
17141;SDS011;32805;53.556;9.944;2022-08-18T01:28:44;7.65;;;7.05;;
17141;SDS011;32805;53.556;9.944;2022-08-18T01:31:28;9.70;;;8.20;;
17141;SDS011;32805;53.556;9.944;2022-08-18T01:33:59;8.85;;;8.05;;
17141;SDS011;32805;53.556;9.944;2022-08-18T01:36:27;9.05;;;8.10;;
17141;SDS011;32805;53.556;9.944;2022-08-18T01:38:56;8.27;;;7.22;;
17141;SDS011;32805;53.556;9.944;2022-08-18T01:41:24;9.45;;;8.23;;
17141;SDS011;32805;53.556;9.944;2022-08-18T01:43:56;8.60;;;7.72;;
17141;SDS011;32805;53.556;9.944;2022-08-18T01:46:25;9.85;;;9.05;;
17141;SDS011;32805;53.556;9.944;2022-08-18T01:48:55;10.00;;;9.13;;
17141;SDS011;32805;53.556;9.944;2022-08-18T01:51:26;9.20;;;8.40;;
17141;SDS011;32805;53.556;9.944;2022-08-18T01:54:08;10.05;;;9.07;;
17141;SDS011;32805;53.556;9.944;2022-08-18T01:56:38;10.60;;;9.60;;
17141;SDS011;32805;53.556;9.944;2022-08-18T01:59:08;10.15;;;9.20;;
17141;SDS011;32805;53.556;9.944;2022-08-18T02:01:42;10.32;;;9.35;;
17141;SDS011;32805;53.556;9.944;2022-08-18T02:04:18;9.88;;;8.98;;
17141;SDS011;32805;53.556;9.944;2022-08-18T02:07:02;9.88;;;9.02;;
17141;SDS011;32805;53.556;9.944;2022-08-18T02:09:33;8.68;;;7.88;;
17141;SDS011;32805;53.556;9.944;2022-08-18T02:12:03;9.60;;;8.70;;
17141;SDS011;32805;53.556;9.944;2022-08-18T02:14:32;10.18;;;8.60;;
17141;SDS011;32805;53.556;9.944;2022-08-18T02:17:01;11.00;;;9.60;;
17141;SDS011;32805;53.556;9.944;2022-08-18T02:19:32;11.27;;;9.43;;
17141;SDS011;32805;53.556;9.944;2022-08-18T02:22:00;10.45;;;9.48;;
17141;SDS011;32805;53.556;9.944;2022-08-18T02:24:29;10.85;;;9.80;;
17141;SDS011;32805;53.556;9.944;2022-08-18T02:26:58;9.18;;;8.38;;
17141;SDS011;32805;53.556;9.944;2022-08-18T02:29:26;10.63;;;9.52;;
17141;SDS011;32805;53.556;9.944;2022-08-18T02:31:54;10.70;;;9.57;;
17141;SDS011;32805;53.556;9.944;2022-08-18T02:34:22;12.63;;;9.73;;
17141;SDS011;32805;53.556;9.944;2022-08-18T02:36:50;11.65;;;10.45;;
17141;SDS011;32805;53.556;9.944;2022-08-18T02:39:18;11.52;;;10.38;;
17141;SDS011;32805;53.556;9.944;2022-08-18T02:41:46;11.63;;;10.52;;
17141;SDS011;32805;53.556;9.944;2022-08-18T02:44:16;11.32;;;10.23;;
17141;SDS011;32805;53.556;9.944;2022-08-18T02:46:44;11.68;;;10.48;;
17141;SDS011;32805;53.556;9.944;2022-08-18T02:49:11;10.18;;;9.27;;
17141;SDS011;32805;53.556;9.944;2022-08-18T02:51:39;11.02;;;10.02;;
17141;SDS011;32805;53.556;9.944;2022-08-18T02:54:07;11.63;;;10.48;;
17141;SDS011;32805;53.556;9.944;2022-08-18T02:56:36;10.73;;;9.73;;
17141;SDS011;32805;53.556;9.944;2022-08-18T02:59:08;11.88;;;10.80;;
17141;SDS011;32805;53.556;9.944;2022-08-18T03:01:39;12.25;;;11.02;;
17141;SDS011;32805;53.556;9.944;2022-08-18T03:04:10;12.57;;;10.23;;
17141;SDS011;32805;53.556;9.944;2022-08-18T03:06:41;12.20;;;11.10;;
17141;SDS011;32805;53.556;9.944;2022-08-18T03:09:11;12.77;;;11.52;;
17141;SDS011;32805;53.556;9.944;2022-08-18T03:11:41;12.27;;;11.05;;
17141;SDS011;32805;53.556;9.944;2022-08-18T03:14:09;11.73;;;10.30;;
17141;SDS011;32805;53.556;9.944;2022-08-18T03:16:39;11.77;;;10.57;;
17141;SDS011;32805;53.556;9.944;2022-08-18T03:19:20;11.20;;;10.20;;
17141;SDS011;32805;53.556;9.944;2022-08-18T03:21:48;10.98;;;10.00;;
17141;SDS011;32805;53.556;9.944;2022-08-18T03:24:18;10.32;;;9.35;;
17141;SDS011;32805;53.556;9.944;2022-08-18T03:26:48;11.05;;;9.88;;
17141;SDS011;32805;53.556;9.944;2022-08-18T03:29:16;10.45;;;9.07;;
17141;SDS011;32805;53.556;9.944;2022-08-18T03:31:45;10.98;;;8.98;;
17141;SDS011;32805;53.556;9.944;2022-08-18T03:34:13;10.65;;;9.65;;
17141;SDS011;32805;53.556;9.944;2022-08-18T03:36:44;10.80;;;9.90;;
17141;SDS011;32805;53.556;9.944;2022-08-18T03:39:13;11.35;;;9.75;;
17141;SDS011;32805;53.556;9.944;2022-08-18T03:41:42;9.00;;;8.20;;
17141;SDS011;32805;53.556;9.944;2022-08-18T03:44:27;9.57;;;8.68;;
17141;SDS011;32805;53.556;9.944;2022-08-18T03:46:58;10.05;;;9.05;;
17141;SDS011;32805;53.556;9.944;2022-08-18T03:49:28;9.63;;;8.75;;
17141;SDS011;32805;53.556;9.944;2022-08-18T03:51:58;10.82;;;9.30;;
17141;SDS011;32805;53.556;9.944;2022-08-18T03:54:27;9.52;;;8.65;;
17141;SDS011;32805;53.556;9.944;2022-08-18T03:56:57;10.85;;;9.85;;
17141;SDS011;32805;53.556;9.944;2022-08-18T03:59:26;9.80;;;8.90;;
17141;SDS011;32805;53.556;9.944;2022-08-18T04:02:01;10.73;;;9.82;;
17141;SDS011;32805;53.556;9.944;2022-08-18T04:04:29;10.80;;;9.70;;
17141;SDS011;32805;53.556;9.944;2022-08-18T04:06:59;10.48;;;9.50;;
17141;SDS011;32805;53.556;9.944;2022-08-18T04:09:31;10.10;;;9.10;;
17141;SDS011;32805;53.556;9.944;2022-08-18T04:12:01;10.40;;;9.27;;
17141;SDS011;32805;53.556;9.944;2022-08-18T04:14:41;12.43;;;9.60;;
17141;SDS011;32805;53.556;9.944;2022-08-18T04:17:13;11.00;;;9.90;;
17141;SDS011;32805;53.556;9.944;2022-08-18T04:19:41;10.55;;;9.48;;
17141;SDS011;32805;53.556;9.944;2022-08-18T04:22:09;11.98;;;10.18;;
17141;SDS011;32805;53.556;9.944;2022-08-18T04:24:42;14.23;;;10.90;;
17141;SDS011;32805;53.556;9.944;2022-08-18T04:27:11;12.23;;;10.25;;
17141;SDS011;32805;53.556;9.944;2022-08-18T04:29:39;10.93;;;9.85;;
17141;SDS011;32805;53.556;9.944;2022-08-18T04:32:07;12.88;;;10.25;;
17141;SDS011;32805;53.556;9.944;2022-08-18T04:34:36;11.80;;;10.70;;
17141;SDS011;32805;53.556;9.944;2022-08-18T04:37:04;11.35;;;10.23;;
17141;SDS011;32805;53.556;9.944;2022-08-18T04:39:33;11.88;;;10.73;;
17141;SDS011;32805;53.556;9.944;2022-08-18T04:42:02;12.20;;;11.00;;
17141;SDS011;32805;53.556;9.944;2022-08-18T04:44:31;13.68;;;11.52;;
17141;SDS011;32805;53.556;9.944;2022-08-18T04:46:59;11.80;;;10.57;;
17141;SDS011;32805;53.556;9.944;2022-08-18T04:49:27;11.60;;;10.38;;
17141;SDS011;32805;53.556;9.944;2022-08-18T04:51:58;12.80;;;11.55;;
17141;SDS011;32805;53.556;9.944;2022-08-18T04:55:04;12.48;;;10.50;;
17141;SDS011;32805;53.556;9.944;2022-08-18T04:57:32;11.82;;;10.43;;
17141;SDS011;32805;53.556;9.944;2022-08-18T05:00:00;11.98;;;10.52;;
17141;SDS011;32805;53.556;9.944;2022-08-18T05:02:30;11.98;;;10.75;;
17141;SDS011;32805;53.556;9.944;2022-08-18T05:04:58;11.23;;;10.23;;
17141;SDS011;32805;53.556;9.944;2022-08-18T05:07:31;11.80;;;10.70;;
17141;SDS011;32805;53.556;9.944;2022-08-18T05:09:58;13.18;;;11.45;;
17141;SDS011;32805;53.556;9.944;2022-08-18T05:12:26;12.63;;;11.32;;
17141;SDS011;32805;53.556;9.944;2022-08-18T05:14:55;12.85;;;9.85;;
17141;SDS011;32805;53.556;9.944;2022-08-18T05:17:23;12.50;;;11.32;;
17141;SDS011;32805;53.556;9.944;2022-08-18T05:19:56;13.25;;;11.30;;
17141;SDS011;32805;53.556;9.944;2022-08-18T05:22:24;13.88;;;10.90;;
17141;SDS011;32805;53.556;9.944;2022-08-18T05:24:57;13.38;;;10.32;;
17141;SDS011;32805;53.556;9.944;2022-08-18T05:27:29;12.13;;;10.60;;
17141;SDS011;32805;53.556;9.944;2022-08-18T05:29:58;11.48;;;9.70;;
17141;SDS011;32805;53.556;9.944;2022-08-18T05:32:25;12.48;;;11.23;;
17141;SDS011;32805;53.556;9.944;2022-08-18T05:35:17;12.00;;;10.88;;
17141;SDS011;32805;53.556;9.944;2022-08-18T05:37:59;12.35;;;10.90;;
17141;SDS011;32805;53.556;9.944;2022-08-18T05:40:42;12.27;;;11.10;;
17141;SDS011;32805;53.556;9.944;2022-08-18T05:43:13;12.07;;;10.88;;
17141;SDS011;32805;53.556;9.944;2022-08-18T05:45:42;11.82;;;10.63;;
17141;SDS011;32805;53.556;9.944;2022-08-18T05:48:10;11.75;;;10.63;;
17141;SDS011;32805;53.556;9.944;2022-08-18T05:50:38;12.45;;;11.18;;
17141;SDS011;32805;53.556;9.944;2022-08-18T05:53:06;17.48;;;13.85;;
17141;SDS011;32805;53.556;9.944;2022-08-18T05:55:43;11.55;;;10.43;;
17141;SDS011;32805;53.556;9.944;2022-08-18T05:58:33;10.48;;;9.48;;
17141;SDS011;32805;53.556;9.944;2022-08-18T06:01:03;10.98;;;9.98;;
17141;SDS011;32805;53.556;9.944;2022-08-18T06:03:35;16.42;;;13.07;;
17141;SDS011;32805;53.556;9.944;2022-08-18T06:06:12;11.98;;;10.82;;
17141;SDS011;32805;53.556;9.944;2022-08-18T06:08:46;18.13;;;13.40;;
17141;SDS011;32805;53.556;9.944;2022-08-18T06:11:20;12.95;;;11.55;;
17141;SDS011;32805;53.556;9.944;2022-08-18T06:13:48;17.15;;;12.70;;
17141;SDS011;32805;53.556;9.944;2022-08-18T06:16:31;12.02;;;10.43;;
17141;SDS011;32805;53.556;9.944;2022-08-18T06:19:23;13.88;;;12.32;;
17141;SDS011;32805;53.556;9.944;2022-08-18T06:22:06;12.18;;;11.07;;
17141;SDS011;32805;53.556;9.944;2022-08-18T06:24:45;13.57;;;12.07;;
17141;SDS011;32805;53.556;9.944;2022-08-18T06:27:27;14.20;;;11.98;;
17141;SDS011;32805;53.556;9.944;2022-08-18T06:30:06;16.45;;;14.20;;
17141;SDS011;32805;53.556;9.944;2022-08-18T06:32:43;15.60;;;14.10;;
17141;SDS011;32805;53.556;9.944;2022-08-18T06:35:28;17.35;;;15.15;;
17141;SDS011;32805;53.556;9.944;2022-08-18T06:38:04;21.25;;;18.95;;
17141;SDS011;32805;53.556;9.944;2022-08-18T06:41:00;27.58;;;21.60;;
17141;SDS011;32805;53.556;9.944;2022-08-18T06:43:31;29.75;;;24.50;;
17141;SDS011;32805;53.556;9.944;2022-08-18T06:46:00;26.65;;;21.63;;
17141;SDS011;32805;53.556;9.944;2022-08-18T06:48:35;33.30;;;25.38;;
17141;SDS011;32805;53.556;9.944;2022-08-18T06:51:07;38.08;;;26.90;;
17141;SDS011;32805;53.556;9.944;2022-08-18T06:53:49;36.33;;;26.73;;
17141;SDS011;32805;53.556;9.944;2022-08-18T06:56:21;40.08;;;29.27;;
17141;SDS011;32805;53.556;9.944;2022-08-18T06:58:53;43.58;;;29.65;;
17141;SDS011;32805;53.556;9.944;2022-08-18T07:01:24;53.55;;;30.98;;
17141;SDS011;32805;53.556;9.944;2022-08-18T07:03:52;45.65;;;29.63;;
17141;SDS011;32805;53.556;9.944;2022-08-18T07:06:25;48.08;;;29.27;;
17141;SDS011;32805;53.556;9.944;2022-08-18T07:11:59;45.53;;;28.08;;
17141;SDS011;32805;53.556;9.944;2022-08-18T07:14:31;43.25;;;27.48;;
17141;SDS011;32805;53.556;9.944;2022-08-18T07:17:09;53.75;;;30.73;;
17141;SDS011;32805;53.556;9.944;2022-08-18T07:19:40;41.58;;;26.63;;
17141;SDS011;32805;53.556;9.944;2022-08-18T07:22:08;45.33;;;30.20;;
17141;SDS011;32805;53.556;9.944;2022-08-18T07:24:38;43.83;;;27.83;;
17141;SDS011;32805;53.556;9.944;2022-08-18T07:27:08;35.13;;;25.08;;
17141;SDS011;32805;53.556;9.944;2022-08-18T07:29:40;37.05;;;26.13;;
17141;SDS011;32805;53.556;9.944;2022-08-18T07:32:26;37.63;;;25.25;;
17141;SDS011;32805;53.556;9.944;2022-08-18T07:34:58;32.78;;;24.10;;
17141;SDS011;32805;53.556;9.944;2022-08-18T07:37:30;35.67;;;25.20;;
17141;SDS011;32805;53.556;9.944;2022-08-18T07:40:02;33.80;;;24.73;;
17141;SDS011;32805;53.556;9.944;2022-08-18T07:42:33;30.83;;;23.65;;
17141;SDS011;32805;53.556;9.944;2022-08-18T07:45:28;28.35;;;20.80;;
17141;SDS011;32805;53.556;9.944;2022-08-18T07:48:01;31.27;;;23.70;;
17141;SDS011;32805;53.556;9.944;2022-08-18T07:50:55;31.13;;;21.98;;
17141;SDS011;32805;53.556;9.944;2022-08-18T07:53:40;33.28;;;22.45;;
17141;SDS011;32805;53.556;9.944;2022-08-18T07:56:25;44.53;;;27.02;;
17141;SDS011;32805;53.556;9.944;2022-08-18T07:59:01;37.00;;;23.67;;
17141;SDS011;32805;53.556;9.944;2022-08-18T08:01:38;47.60;;;29.15;;
17141;SDS011;32805;53.556;9.944;2022-08-18T08:04:12;60.63;;;32.47;;
17141;SDS011;32805;53.556;9.944;2022-08-18T08:06:52;52.35;;;27.65;;
17141;SDS011;32805;53.556;9.944;2022-08-18T08:09:45;55.42;;;30.17;;
17141;SDS011;32805;53.556;9.944;2022-08-18T08:12:24;56.45;;;29.75;;
17141;SDS011;32805;53.556;9.944;2022-08-18T08:14:59;61.65;;;29.52;;
17141;SDS011;32805;53.556;9.944;2022-08-18T08:17:41;50.22;;;28.23;;
17141;SDS011;32805;53.556;9.944;2022-08-18T08:20:21;49.47;;;27.90;;
17141;SDS011;32805;53.556;9.944;2022-08-18T08:23:00;48.58;;;27.08;;
17141;SDS011;32805;53.556;9.944;2022-08-18T08:25:43;46.75;;;27.88;;
17141;SDS011;32805;53.556;9.944;2022-08-18T08:28:22;37.28;;;21.52;;
17141;SDS011;32805;53.556;9.944;2022-08-18T08:31:00;39.67;;;24.63;;
17141;SDS011;32805;53.556;9.944;2022-08-18T08:33:57;38.17;;;25.10;;
17141;SDS011;32805;53.556;9.944;2022-08-18T08:36:32;39.05;;;24.33;;
17141;SDS011;32805;53.556;9.944;2022-08-18T08:39:05;38.83;;;23.67;;
17141;SDS011;32805;53.556;9.944;2022-08-18T08:41:39;38.75;;;24.02;;
17141;SDS011;32805;53.556;9.944;2022-08-18T08:44:11;30.90;;;22.30;;
17141;SDS011;32805;53.556;9.944;2022-08-18T08:46:43;31.63;;;19.98;;
17141;SDS011;32805;53.556;9.944;2022-08-18T08:49:18;33.00;;;21.33;;
17141;SDS011;32805;53.556;9.944;2022-08-18T08:51:55;36.53;;;26.25;;
17141;SDS011;32805;53.556;9.944;2022-08-18T08:54:29;30.33;;;20.33;;
17141;SDS011;32805;53.556;9.944;2022-08-18T08:57:03;31.73;;;22.77;;
17141;SDS011;32805;53.556;9.944;2022-08-18T08:59:35;31.75;;;20.30;;
17141;SDS011;32805;53.556;9.944;2022-08-18T09:02:11;32.50;;;22.08;;
17141;SDS011;32805;53.556;9.944;2022-08-18T09:05:16;33.80;;;22.63;;
17141;SDS011;32805;53.556;9.944;2022-08-18T09:07:55;34.15;;;23.63;;
17141;SDS011;32805;53.556;9.944;2022-08-18T09:10:40;32.58;;;22.20;;
17141;SDS011;32805;53.556;9.944;2022-08-18T09:13:34;31.95;;;21.60;;
17141;SDS011;32805;53.556;9.944;2022-08-18T09:16:21;32.10;;;21.63;;
17141;SDS011;32805;53.556;9.944;2022-08-18T09:19:01;31.23;;;22.35;;
17141;SDS011;32805;53.556;9.944;2022-08-18T09:21:44;28.70;;;21.85;;
17141;SDS011;32805;53.556;9.944;2022-08-18T09:24:19;31.63;;;23.27;;
17141;SDS011;32805;53.556;9.944;2022-08-18T09:26:50;32.33;;;21.48;;
17141;SDS011;32805;53.556;9.944;2022-08-18T09:29:22;31.45;;;21.67;;
17141;SDS011;32805;53.556;9.944;2022-08-18T09:35:08;24.25;;;19.38;;
17141;SDS011;32805;53.556;9.944;2022-08-18T09:37:51;23.42;;;18.23;;
17141;SDS011;32805;53.556;9.944;2022-08-18T09:40:40;29.67;;;21.60;;
17141;SDS011;32805;53.556;9.944;2022-08-18T09:43:33;27.00;;;20.80;;
17141;SDS011;32805;53.556;9.944;2022-08-18T09:46:05;27.70;;;22.60;;
17141;SDS011;32805;53.556;9.944;2022-08-18T09:48:37;29.17;;;22.02;;
17141;SDS011;32805;53.556;9.944;2022-08-18T09:54:12;23.50;;;19.30;;
17141;SDS011;32805;53.556;9.944;2022-08-18T09:57:19;23.23;;;18.45;;
17141;SDS011;32805;53.556;9.944;2022-08-18T09:59:54;29.42;;;23.42;;
17141;SDS011;32805;53.556;9.944;2022-08-18T10:09:01;23.38;;;18.83;;
17141;SDS011;32805;53.556;9.944;2022-08-18T10:12:08;25.98;;;20.77;;
17141;SDS011;32805;53.556;9.944;2022-08-18T10:18:04;25.20;;;19.00;;
17141;SDS011;32805;53.556;9.944;2022-08-18T10:20:48;22.90;;;18.70;;
17141;SDS011;32805;53.556;9.944;2022-08-18T10:23:43;27.25;;;21.63;;
17141;SDS011;32805;53.556;9.944;2022-08-18T10:29:43;26.15;;;21.38;;
17141;SDS011;32805;53.556;9.944;2022-08-18T10:32:16;21.95;;;18.45;;
17141;SDS011;32805;53.556;9.944;2022-08-18T10:38:40;23.80;;;19.15;;
17141;SDS011;32805;53.556;9.944;2022-08-18T10:41:19;20.23;;;17.70;;
17141;SDS011;32805;53.556;9.944;2022-08-18T10:43:58;24.67;;;20.30;;
17141;SDS011;32805;53.556;9.944;2022-08-18T10:46:48;28.73;;;21.23;;
17141;SDS011;32805;53.556;9.944;2022-08-18T10:49:18;26.65;;;20.70;;
17141;SDS011;32805;53.556;9.944;2022-08-18T10:52:16;26.55;;;20.65;;
17141;SDS011;32805;53.556;9.944;2022-08-18T10:55:13;24.08;;;20.75;;
17141;SDS011;32805;53.556;9.944;2022-08-18T10:58:03;24.33;;;20.10;;
17141;SDS011;32805;53.556;9.944;2022-08-18T11:00:58;23.60;;;20.90;;
17141;SDS011;32805;53.556;9.944;2022-08-18T11:03:40;22.08;;;18.38;;
17141;SDS011;32805;53.556;9.944;2022-08-18T11:06:22;21.88;;;19.50;;
17141;SDS011;32805;53.556;9.944;2022-08-18T11:08:52;20.70;;;18.50;;
17141;SDS011;32805;53.556;9.944;2022-08-18T11:11:27;23.00;;;18.70;;
17141;SDS011;32805;53.556;9.944;2022-08-18T11:14:32;24.13;;;19.35;;
17141;SDS011;32805;53.556;9.944;2022-08-18T11:17:10;19.63;;;17.02;;
17141;SDS011;32805;53.556;9.944;2022-08-18T11:19:46;22.15;;;19.58;;
17141;SDS011;32805;53.556;9.944;2022-08-18T11:22:20;20.67;;;18.42;;
17141;SDS011;32805;53.556;9.944;2022-08-18T11:24:58;18.50;;;16.60;;
17141;SDS011;32805;53.556;9.944;2022-08-18T11:27:29;24.20;;;18.33;;
17141;SDS011;32805;53.556;9.944;2022-08-18T11:30:03;17.48;;;15.00;;
17141;SDS011;32805;53.556;9.944;2022-08-18T11:32:34;20.25;;;17.95;;
17141;SDS011;32805;53.556;9.944;2022-08-18T11:35:17;19.38;;;16.70;;
17141;SDS011;32805;53.556;9.944;2022-08-18T11:37:48;17.70;;;15.88;;
17141;SDS011;32805;53.556;9.944;2022-08-18T11:40:25;17.48;;;15.68;;
17141;SDS011;32805;53.556;9.944;2022-08-18T11:43:24;16.95;;;15.15;;
17141;SDS011;32805;53.556;9.944;2022-08-18T11:45:56;15.98;;;14.27;;
17141;SDS011;32805;53.556;9.944;2022-08-18T11:48:35;15.93;;;14.23;;
17141;SDS011;32805;53.556;9.944;2022-08-18T11:51:19;12.98;;;11.60;;
17141;SDS011;32805;53.556;9.944;2022-08-18T11:53:51;14.88;;;13.27;;
17141;SDS011;32805;53.556;9.944;2022-08-18T11:56:42;15.32;;;13.82;;
17141;SDS011;32805;53.556;9.944;2022-08-18T12:02:21;14.60;;;12.30;;
17141;SDS011;32805;53.556;9.944;2022-08-18T12:04:53;17.95;;;12.40;;
17141;SDS011;32805;53.556;9.944;2022-08-18T12:07:29;14.15;;;12.68;;
17141;SDS011;32805;53.556;9.944;2022-08-18T12:10:13;13.05;;;11.13;;
17141;SDS011;32805;53.556;9.944;2022-08-18T12:13:05;15.57;;;13.98;;
17141;SDS011;32805;53.556;9.944;2022-08-18T12:15:34;15.57;;;14.02;;
17141;SDS011;32805;53.556;9.944;2022-08-18T12:18:12;15.95;;;12.95;;
17141;SDS011;32805;53.556;9.944;2022-08-18T12:20:53;15.63;;;14.02;;
17141;SDS011;32805;53.556;9.944;2022-08-18T12:23:22;13.07;;;11.63;;
17141;SDS011;32805;53.556;9.944;2022-08-18T12:25:50;17.60;;;14.88;;
17141;SDS011;32805;53.556;9.944;2022-08-18T12:28:18;14.85;;;12.93;;
17141;SDS011;32805;53.556;9.944;2022-08-18T12:30:47;12.38;;;11.05;;
17141;SDS011;32805;53.556;9.944;2022-08-18T12:33:22;14.75;;;10.77;;
17141;SDS011;32805;53.556;9.944;2022-08-18T12:36:11;13.65;;;11.73;;
17141;SDS011;32805;53.556;9.944;2022-08-18T12:38:41;12.13;;;10.80;;
17141;SDS011;32805;53.556;9.944;2022-08-18T12:41:21;13.23;;;11.95;;
17141;SDS011;32805;53.556;9.944;2022-08-18T12:43:49;14.60;;;12.93;;
17141;SDS011;32805;53.556;9.944;2022-08-18T12:46:25;14.40;;;12.90;;
17141;SDS011;32805;53.556;9.944;2022-08-18T12:48:52;13.93;;;12.27;;
17141;SDS011;32805;53.556;9.944;2022-08-18T12:51:22;12.93;;;11.65;;
17141;SDS011;32805;53.556;9.944;2022-08-18T12:53:56;14.90;;;12.15;;
17141;SDS011;32805;53.556;9.944;2022-08-18T12:56:26;14.65;;;11.35;;
17141;SDS011;32805;53.556;9.944;2022-08-18T12:58:56;11.93;;;10.82;;
17141;SDS011;32805;53.556;9.944;2022-08-18T13:01:25;12.75;;;10.90;;
17141;SDS011;32805;53.556;9.944;2022-08-18T13:03:53;13.50;;;12.10;;
17141;SDS011;32805;53.556;9.944;2022-08-18T13:06:51;12.35;;;11.05;;
17141;SDS011;32805;53.556;9.944;2022-08-18T13:09:27;11.35;;;10.15;;
17141;SDS011;32805;53.556;9.944;2022-08-18T13:12:14;11.07;;;9.98;;
17141;SDS011;32805;53.556;9.944;2022-08-18T13:14:42;12.18;;;11.00;;
17141;SDS011;32805;53.556;9.944;2022-08-18T13:17:11;11.07;;;9.98;;
17141;SDS011;32805;53.556;9.944;2022-08-18T13:19:59;10.70;;;9.60;;
17141;SDS011;32805;53.556;9.944;2022-08-18T13:22:31;11.40;;;9.40;;
17141;SDS011;32805;53.556;9.944;2022-08-18T13:24:59;10.55;;;9.57;;
17141;SDS011;32805;53.556;9.944;2022-08-18T13:27:29;10.55;;;9.55;;
17141;SDS011;32805;53.556;9.944;2022-08-18T13:30:01;10.15;;;9.13;;
17141;SDS011;32805;53.556;9.944;2022-08-18T13:32:51;10.25;;;9.02;;
17141;SDS011;32805;53.556;9.944;2022-08-18T13:35:28;11.27;;;10.07;;
17141;SDS011;32805;53.556;9.944;2022-08-18T13:38:11;11.13;;;10.15;;
17141;SDS011;32805;53.556;9.944;2022-08-18T13:40:47;10.48;;;9.48;;
17141;SDS011;32805;53.556;9.944;2022-08-18T13:43:17;9.30;;;8.50;;
17141;SDS011;32805;53.556;9.944;2022-08-18T13:45:49;10.27;;;9.20;;
17141;SDS011;32805;53.556;9.944;2022-08-18T13:48:21;9.35;;;8.38;;
17141;SDS011;32805;53.556;9.944;2022-08-18T13:50:49;10.32;;;9.40;;
17141;SDS011;32805;53.556;9.944;2022-08-18T13:53:22;10.98;;;9.75;;
17141;SDS011;32805;53.556;9.944;2022-08-18T13:55:53;9.35;;;8.32;;
17141;SDS011;32805;53.556;9.944;2022-08-18T13:58:24;9.70;;;8.52;;
17141;SDS011;32805;53.556;9.944;2022-08-18T14:00:54;9.18;;;8.27;;
17141;SDS011;32805;53.556;9.944;2022-08-18T14:03:43;9.20;;;8.30;;
17141;SDS011;32805;53.556;9.944;2022-08-18T14:06:13;10.05;;;7.82;;
17141;SDS011;32805;53.556;9.944;2022-08-18T14:08:50;9.80;;;7.65;;
17141;SDS011;32805;53.556;9.944;2022-08-18T14:11:21;9.80;;;8.75;;
17141;SDS011;32805;53.556;9.944;2022-08-18T14:13:59;9.45;;;8.55;;
17141;SDS011;32805;53.556;9.944;2022-08-18T14:16:27;9.65;;;8.57;;
17141;SDS011;32805;53.556;9.944;2022-08-18T14:18:56;8.45;;;7.68;;
17141;SDS011;32805;53.556;9.944;2022-08-18T14:21:44;8.30;;;7.60;;
17141;SDS011;32805;53.556;9.944;2022-08-18T14:24:33;10.73;;;8.63;;
17141;SDS011;32805;53.556;9.944;2022-08-18T14:27:24;12.40;;;11.20;;
17141;SDS011;32805;53.556;9.944;2022-08-18T14:30:00;13.27;;;11.98;;
17141;SDS011;32805;53.556;9.944;2022-08-18T14:32:31;12.55;;;11.43;;
17141;SDS011;32805;53.556;9.944;2022-08-18T14:35:02;11.65;;;10.45;;
17141;SDS011;32805;53.556;9.944;2022-08-18T14:37:52;12.85;;;11.27;;
17141;SDS011;32805;53.556;9.944;2022-08-18T14:40:23;12.23;;;11.13;;
17141;SDS011;32805;53.556;9.944;2022-08-18T14:42:52;12.40;;;11.25;;
17141;SDS011;32805;53.556;9.944;2022-08-18T14:45:21;13.63;;;12.20;;
17141;SDS011;32805;53.556;9.944;2022-08-18T14:47:59;13.02;;;11.73;;
17141;SDS011;32805;53.556;9.944;2022-08-18T14:50:32;12.73;;;11.45;;
17141;SDS011;32805;53.556;9.944;2022-08-18T14:53:00;14.30;;;12.90;;
17141;SDS011;32805;53.556;9.944;2022-08-18T14:55:29;14.63;;;13.15;;
17141;SDS011;32805;53.556;9.944;2022-08-18T14:57:57;15.30;;;13.07;;
17141;SDS011;32805;53.556;9.944;2022-08-18T15:00:25;11.88;;;10.88;;
17141;SDS011;32805;53.556;9.944;2022-08-18T15:02:54;14.23;;;12.75;;
17141;SDS011;32805;53.556;9.944;2022-08-18T15:05:25;13.43;;;12.13;;
17141;SDS011;32805;53.556;9.944;2022-08-18T15:07:59;14.90;;;13.57;;
17141;SDS011;32805;53.556;9.944;2022-08-18T15:10:30;15.75;;;14.15;;
17141;SDS011;32805;53.556;9.944;2022-08-18T15:12:59;15.25;;;13.85;;
17141;SDS011;32805;53.556;9.944;2022-08-18T15:15:27;14.50;;;13.20;;
17141;SDS011;32805;53.556;9.944;2022-08-18T15:18:15;12.32;;;11.10;;
17141;SDS011;32805;53.556;9.944;2022-08-18T15:20:48;13.02;;;11.70;;
17141;SDS011;32805;53.556;9.944;2022-08-18T15:23:45;10.48;;;9.57;;
17141;SDS011;32805;53.556;9.944;2022-08-18T15:26:47;12.55;;;11.23;;
17141;SDS011;32805;53.556;9.944;2022-08-18T15:29:23;11.27;;;10.20;;
17141;SDS011;32805;53.556;9.944;2022-08-18T15:31:55;11.05;;;9.95;;
17141;SDS011;32805;53.556;9.944;2022-08-18T15:34:31;11.48;;;9.90;;
17141;SDS011;32805;53.556;9.944;2022-08-18T15:37:16;11.52;;;9.95;;
17141;SDS011;32805;53.556;9.944;2022-08-18T15:39:56;12.23;;;10.90;;
17141;SDS011;32805;53.556;9.944;2022-08-18T15:42:29;12.77;;;10.30;;
17141;SDS011;32805;53.556;9.944;2022-08-18T15:44:59;11.50;;;10.40;;